Latest Weather Observations for Cooma Airport

IDN60901

Issued at 8:21 am EDT Sunday 14 February 2016 (issued every 10 minutes, with the page automatically refreshed every 10 minutes)

About weather observations | Map of Canberra area stations | Latest observations for Canberra area | Other Formats
Station Details ID: 070217 Name: COOMA AIRPORT AWS Lat: -36.29 Lon: 148.97 Height: 930.0 m
Data from the previous 72 hours. | See also: Recent months at Cooma Airport
Date/Time
EDT
Tmp

°C
App
Tmp
°C
Dew
Point
°C
Rel
Hum
%
Delta-T

°C
Wind Press
QNH
hPa
Press
MSL
hPa
Rain
since
9 am
mm
Dir
 
Spd
km/h
Gust
km/h
Spd
kts
Gust
kts
14/08:00am 20.9 18.5 6.8 40 7.5 NNW 9 13 5 7 1011.2 1007.1 0.0
14/07:30am 19.3 15.8 5.4 40 7.1 NNW 13 17 7 9 1011.1 1007.0 0.0
14/07:00am 18.1 14.1 4.7 41 6.7 NNW 15 20 8 11 1010.9 1006.8 0.0
14/06:30am 17.6 13.2 4.9 43 6.4 NNW 17 20 9 11 1010.5 1006.5 0.0
14/06:00am 14.2 11.5 5.6 56 4.3 N 9 13 5 7 1010.3 1006.2 0.0
14/05:30am 18.7 16.5 5.5 42 6.8 NNW 6 11 3 6 1010.3 1006.2 0.0
14/05:00am 17.8 14.3 7.0 49 5.7 NNW 15 20 8 11 1010.3 1006.2 0.0
14/04:30am 15.5 13.1 7.0 57 4.4 N 9 13 5 7 1010.4 1006.4 0.0
14/04:00am 14.8 12.4 7.1 60 4.0 NNE 9 11 5 6 1010.1 1006.0 0.0
14/03:30am 18.7 16.1 6.2 44 6.5 NW 9 11 5 6 1010.3 1006.2 0.0
14/03:00am 20.0 17.1 6.4 41 7.2 NW 11 15 6 8 1010.9 1006.8 0.0
14/02:30am 19.5 15.2 6.9 44 6.7 NNW 19 24 10 13 1010.9 1006.8 0.0
14/02:00am 22.3 18.6 6.5 36 8.4 NW 15 26 8 14 1011.1 1007.0 0.0
14/01:30am 22.1 18.3 5.9 35 8.5 WNW 15 20 8 11 1011.3 1007.3 0.0
14/01:00am 20.4 17.5 6.7 41 7.3 NNW 11 15 6 8 1011.6 1007.6 0.0
14/12:30am 23.2 19.5 6.5 34 9.0 NW 15 26 8 14 1011.5 1007.5 0.0
14/12:00am 20.9 18.3 9.2 47 6.5 N 13 17 7 9 1011.7 1007.7 0.0
 
Date/Time
EDT
Tmp

°C
App
Tmp
°C
Dew
Point
°C
Rel
Hum
%
Delta-T

°C
Wind Press
QNH
hPa
Press
MSL
hPa
Rain
since
9 am
mm
Dir
 
Spd
km/h
Gust
km/h
Spd
kts
Gust
kts
13/11:30pm 21.3 19.2 9.9 48 6.4 N 11 15 6 8 1012.0 1007.9 0.0
13/11:00pm 19.3 18.6 12.1 63 4.2 NE 7 11 4 6 1012.3 1008.3 0.0
13/10:30pm 19.1 17.2 13.1 68 3.5 NE 15 17 8 9 1012.7 1008.7 0.0
13/10:00pm 19.5 20.1 13.2 67 3.7 NE 2 7 1 4 1013.0 1009.0 0.0
13/09:30pm 21.0 21.4 12.4 58 5.1 N 2 9 1 5 1013.3 1009.3 0.0
13/09:00pm 20.6 21.5 14.0 66 4.0 NNE 2 13 1 7 1013.0 1009.0 0.0
13/08:30pm 21.0 20.5 12.2 57 5.2 NW 6 9 3 5 1012.7 1008.7 0.0
13/08:00pm 23.2 21.9 11.3 47 6.9 WNW 9 11 5 6 1012.6 1008.6 0.0
13/07:30pm 24.8 25.1 11.0 42 8.1 CALM 0 9 0 5 1012.4 1008.4 0.0
13/07:00pm 25.8 25.1 11.9 42 8.3 W 7 9 4 5 1012.3 1008.3 0.0
13/06:30pm 25.8 24.5 11.2 40 8.6 WNW 9 13 5 7 1012.1 1008.0 0.0
13/06:00pm 26.6 24.4 9.5 34 9.8 N 11 15 6 8 1012.1 1008.0 0.0
13/05:30pm 27.1 23.9 7.0 28 11.1 NW 13 19 7 10 1012.4 1008.4 0.0
13/05:00pm 27.7 24.3 7.5 28 11.3 NW 15 22 8 12 1012.1 1008.0 0.0
13/04:30pm 28.8 24.7 6.2 24 12.4 NW 17 24 9 13 1012.6 1008.6 0.0
13/04:00pm 28.8 24.8 6.8 25 12.2 WNW 17 26 9 14 1012.7 1008.7 0.0
13/03:30pm 29.4 25.8 8.5 27 12.0 W 17 26 9 14 1013.2 1009.1 0.0
13/03:00pm 28.6 23.9 6.1 24 12.4 WNW 20 32 11 17 1013.6 1009.6 0.0
13/02:30pm 28.9 25.0 6.9 25 12.3 WNW 17 28 9 15 1013.7 1009.7 0.0
13/02:00pm 28.8 24.9 8.5 28 11.6 WNW 19 30 10 16 1014.0 1010.0 0.0
13/01:30pm 28.2 24.3 6.9 26 11.8 WNW 17 30 9 16 1014.2 1010.3 0.0
13/01:00pm 28.0 24.4 8.3 29 11.2 WNW 17 24 9 13 1014.2 1010.3 0.0
13/12:30pm 27.7 23.3 7.5 28 11.3 WNW 20 30 11 16 1014.8 1010.8 0.0
13/12:00pm 27.2 22.8 7.6 29 11.0 WNW 20 33 11 18 1015.1 1011.1 0.0
13/11:30am 25.7 22.3 11.1 40 8.6 NNW 20 30 11 16 1015.5 1011.5 0.0
13/11:00am 24.7 21.5 11.3 43 7.9 NW 19 24 10 13 1015.8 1011.8 0.0
13/10:30am 24.0 20.7 11.7 46 7.3 NNW 20 30 11 16 1016.0 1012.0 0.0
13/10:00am 22.4 21.1 15.7 66 4.2 ENE 17 20 9 11 1016.3 1012.4 0.0
13/09:30am 21.1 20.4 15.4 70 3.5 NE 13 17 7 9 1016.4 1012.5 0.0
13/09:00am 19.6 18.5 16.3 81 2.1 ENE 17 19 9 10 1016.7 1012.7 0.2
13/08:30am 17.6 16.4 17.0 96 0.4 NE 19 22 10 12 1016.5 1012.6 0.2
13/08:00am 15.3 13.4 15.1 99 0.1 NE 19 22 10 12 1016.4 1012.5 0.2
13/07:45am 15.0 13.0 15.0 100 0.0 NE 19 22 10 12 1016.3 1012.4 0.2
13/07:44am 15.0 13.0 15.0 100 0.0 NE 19 22 10 12 1016.3 1012.4 0.2
13/07:30am 14.6 12.9 14.6 100 0.0 NE 17 20 9 11 1016.3 1012.4 0.2
13/07:00am 14.1 12.2 14.1 100 0.0 NE 17 19 9 10 1016.2 1012.3 0.2
13/06:47am 13.8 11.8 13.8 100 0.0 NNE 17 19 9 10 1016.1 1012.2 0.2
13/06:32am 12.4 10.2 12.2 99 0.1 NNE 15 17 8 9 1016.0 1012.0 0.2
13/06:30am 12.6 10.5 12.4 99 0.1 NNE 15 17 8 9 1016.0 1012.0 0.2
13/06:00am 13.6 11.9 13.6 100 0.0 NE 15 19 8 10 1015.8 1011.8 0.2
13/05:30am 14.0 12.0 14.0 100 0.0 NE 17 20 9 11 1015.8 1011.8 0.2
13/05:00am 13.2 11.4 13.2 100 0.0 NE 15 17 8 9 1015.7 1011.7 0.0
13/04:30am 12.8 11.2 12.8 100 0.0 NNE 13 15 7 8 1015.8 1011.8 0.0
13/04:00am 12.9 11.7 12.9 100 0.0 NNE 11 15 6 8 1016.0 1012.0 0.0
13/03:30am 13.7 12.0 13.5 99 0.1 NE 15 17 8 9 1016.1 1012.2 0.0
13/03:00am 13.7 12.0 13.7 100 0.0 NE 15 17 8 9 1016.2 1012.3 0.0
13/02:30am 13.3 11.5 13.3 100 0.0 NNE 15 17 8 9 1016.3 1012.4 0.0
13/02:00am 13.8 12.2 13.8 100 0.0 N 15 17 8 9 1016.7 1012.7 0.0
13/01:30am 13.2 11.7 13.2 100 0.0 NNE 13 15 7 8 1016.9 1012.9 0.0
13/01:29am 13.3 11.9 13.3 100 0.0 NNE 13 15 7 8 1016.9 1012.9 0.0
13/01:06am 13.3 12.3 13.3 100 0.0 NNE 11 13 6 7 1017.1 1013.2 0.0
13/01:00am 13.6 12.7 13.6 100 0.0 NE 11 13 6 7 1017.1 1013.2 0.0
13/12:30am 14.1 12.6 14.1 100 0.0 NNE 15 15 8 8 1017.3 1013.4 0.0
13/12:00am 15.0 14.2 15.0 100 0.0 NNE 13 15 7 8 1017.3 1013.4 0.0
 
Date/Time
EDT
Tmp

°C
App
Tmp
°C
Dew
Point
°C
Rel
Hum
%
Delta-T

°C
Wind Press
QNH
hPa
Press
MSL
hPa
Rain
since
9 am
mm
Dir
 
Spd
km/h
Gust
km/h
Spd
kts
Gust
kts
12/11:30pm 15.3 14.2 15.3 100 0.0 NNE 15 17 8 9 1017.4 1013.5 0.0
12/11:00pm 15.6 14.5 15.3 98 0.2 NNE 15 17 8 9 1017.6 1013.7 0.0
12/10:30pm 16.3 15.8 16.0 98 0.2 NE 13 15 7 8 1017.9 1013.9 0.0
12/10:00pm 15.2 14.0 12.9 86 1.3 NNE 11 13 6 7 1017.9 1013.9 0.0
12/09:30pm 15.8 14.2 12.7 82 1.8 NE 13 15 7 8 1017.8 1013.8 0.0
12/09:00pm 17.0 16.3 13.3 79 2.2 NNE 9 9 5 5 1017.5 1013.6 0.0
12/08:30pm 17.4 15.8 12.7 74 2.7 NNE 13 17 7 9 1017.4 1013.5 0.0
12/08:00pm 19.8 18.2 12.8 64 4.1 NE 13 17 7 9 1017.1 1013.2 0.0
12/07:30pm 21.5 19.3 13.4 60 4.9 NE 17 24 9 13 1016.9 1012.9 0.0
12/07:00pm 22.2 18.7 13.3 57 5.3 ENE 24 30 13 16 1016.9 1012.9 0.0
12/06:30pm 22.4 19.4 12.6 54 5.8 NE 20 26 11 14 1016.9 1012.9 0.0
12/06:00pm 23.7 21.2 14.1 55 5.9 NE 20 24 11 13 1016.7 1012.7 0.0
12/05:30pm 24.9 23.2 14.7 53 6.3 E 17 32 9 17 1016.2 1012.3 0.0
12/05:00pm 27.2 25.4 8.1 30 10.8 WNW 7 11 4 6 1015.9 1011.9 0.0
12/04:30pm 25.8 23.9 9.2 35 9.5 W 9 13 5 7 1016.1 1012.2 0.0
12/04:00pm 26.2 24.0 7.7 31 10.3 SSW 9 15 5 8 1016.3 1012.4 0.0
12/03:30pm 26.3 24.5 7.8 31 10.3 W 7 15 4 8 1016.5 1012.6 0.0
12/03:00pm 25.9 24.2 9.7 36 9.3 NNW 9 15 5 8 1016.9 1012.9 0.0
12/02:30pm 25.5 23.2 8.9 35 9.4 NNE 11 22 6 12 1017.1 1013.2 0.0
12/02:00pm 25.9 24.4 9.3 35 9.5 SSW 7 13 4 7 1017.5 1013.6 0.0
12/01:30pm 25.3 23.7 8.7 35 9.4 SSE 7 13 4 7 1017.6 1013.7 0.0
12/01:00pm 24.8 23.1 7.4 33 9.6 SSW 6 9 3 5 1018.0 1014.0 0.0
12/12:30pm 24.7 22.6 9.8 39 8.5 E 11 15 6 8 1018.3 1014.4 0.0
12/12:00pm 23.1 22.2 12.7 52 6.2 NNE 9 15 5 8 1018.7 1014.8 0.0
12/11:30am 22.1 21.1 14.5 62 4.7 NE 13 19 7 10 1018.8 1014.9 0.0
12/11:00am 20.9 19.4 15.2 70 3.5 NE 17 20 9 11 1019.1 1015.2 0.0
12/10:30am 19.6 18.0 15.9 79 2.3 NE 19 24 10 13 1019.3 1015.4 0.0
12/10:00am 18.3 16.7 16.1 87 1.4 NE 19 22 10 12 1019.5 1015.6 0.0
12/09:52am 17.9 16.3 16.1 89 1.1 NE 19 20 10 11 1019.5 1015.6 0.0
12/09:30am 16.1 14.8 15.8 98 0.2 NE 17 20 9 11 1019.7 1015.8 0.0
12/09:00am 14.8 13.1 14.8 100 0.0 NNE 17 22 9 12 1019.8 1015.9 2.8
12/08:57am 14.6 12.5 14.6 100 0.0 NNE 19 22 10 12 1019.8 1015.9 2.8
12/08:30am 14.3 12.1 14.3 100 0.0 NNE 19 26 10 14 1019.7 1015.8 2.8
12/08:00am 13.8 11.8 13.8 100 0.0 NE 17 20 9 11 1019.4 1015.5 2.8
12/07:30am 13.4 11.2 13.4 100 0.0 NNE 17 19 9 10 1019.2 1015.3 2.8
12/07:00am 12.8 10.8 12.8 100 0.0 NNE 15 19 8 10 1019.0 1015.0 2.8
12/06:30am 12.6 10.9 12.6 100 0.0 NE 13 17 7 9 1018.7 1014.8 2.8
12/06:00am 12.9 11.7 12.9 100 0.0 NE 11 13 6 7 1018.5 1014.6 2.8
12/05:30am 12.7 11.5 12.7 100 0.0 NE 11 11 6 6 1018.3 1014.4 2.8
12/05:00am 11.7 12.2 11.7 100 0.0 CALM 0 4 0 2 1018.1 1014.2 2.8
12/04:30am 12.6 12.3 12.6 100 0.0 NNE 6 7 3 4 1018.2 1014.3 2.8
12/04:00am 13.0 13.9 13.0 100 0.0 CALM 0 0 0 0 1018.2 1014.3 2.8
12/03:30am 13.1 13.3 13.1 100 0.0 NNW 4 6 2 3 1018.4 1014.5 2.8
12/03:13am 12.5 12.9 12.5 100 0.0 N 2 7 1 4 1018.4 1014.5 2.8
12/03:00am 11.8 10.6 11.6 99 0.1 NNE 9 11 5 6 1018.4 1014.5 2.8
12/02:52am 12.5 11.1 12.3 99 0.1 NE 11 15 6 8 1018.4 1014.5 2.8
12/02:49am 13.3 11.9 13.3 100 0.0 NE 13 15 7 8 1018.5 1014.6 2.8
12/02:30am 13.4 12.4 13.4 100 0.0 ENE 11 13 6 7 1018.6 1014.7 2.6
12/02:04am 13.7 12.3 13.5 99 0.1 NE 13 13 7 7 1018.8 1014.9 2.6
12/02:00am 13.7 12.3 13.5 99 0.1 NE 13 13 7 7 1018.8 1014.9 2.6
12/01:30am 14.5 13.9 14.5 100 0.0 NNE 11 13 6 7 1019.1 1015.2 2.6
12/01:04am 14.3 14.0 14.3 100 0.0 NE 9 11 5 6 1019.4 1015.5 2.6
12/01:00am 14.2 13.5 14.2 100 0.0 NE 11 11 6 6 1019.4 1015.5 2.6
12/12:43am 13.4 12.8 13.4 100 0.0 NNE 9 11 5 6 1019.5 1015.6 2.6
12/12:31am 13.5 12.5 13.5 100 0.0 NNE 11 15 6 8 1019.5 1015.6 2.6
12/12:30am 13.5 12.5 13.3 99 0.1 NNE 11 15 6 8 1019.5 1015.6 2.6
12/12:27am 13.5 12.1 13.5 100 0.0 NNE 13 15 7 8 1019.6 1015.7 2.6
12/12:08am 13.3 12.2 13.1 99 0.1 NNE 11 13 6 7 1019.5 1015.6 2.6
12/12:00am 13.9 12.6 13.7 99 0.1 NNE 13 15 7 8 1019.5 1015.6 2.6
 
Date/Time
EDT
Tmp

°C
App
Tmp
°C
Dew
Point
°C
Rel
Hum
%
Delta-T

°C
Wind Press
QNH
hPa
Press
MSL
hPa
Rain
since
9 am
mm
Dir
 
Spd
km/h
Gust
km/h
Spd
kts
Gust
kts
11/11:30pm 14.7 14.1 14.5 99 0.1 NNE 11 13 6 7 1019.7 1015.8 2.6
11/11:18pm 15.2 15.7 15.0 99 0.1 NE 6 9 3 5 1020.0 1016.2 2.6
11/11:00pm 14.5 15.5 14.3 99 0.1 SSE 2 9 1 5 1020.0 1016.2 2.6
11/10:58pm 14.5 15.9 14.3 99 0.1 CALM 0 0 0 0 1020.0 1016.2 2.6
11/10:30pm 15.0 15.4 14.8 99 0.1 NE 6 11 3 6 1019.8 1015.9 2.6
11/10:00pm 15.4 15.8 15.2 99 0.1 N 7 11 4 6 1019.8 1015.9 2.6
11/09:30pm 16.1 15.8 15.5 96 0.4 ENE 11 17 6 9 1019.5 1015.6 2.6
11/09:00pm 16.3 14.5 15.5 95 0.5 NE 19 22 10 12 1019.3 1015.4 2.6
11/08:30pm 16.4 14.9 16.2 99 0.1 NE 19 22 10 12 1018.6 1014.7 2.6
11/08:00pm 16.4 15.6 16.2 99 0.1 NE 15 19 8 10 1018.1 1014.2 2.6
11/07:30pm 17.5 16.2 16.7 95 0.5 NE 19 24 10 13 1017.8 1013.8 2.6
11/07:00pm 17.8 17.0 17.0 95 0.5 NE 17 22 9 12 1017.5 1013.6 2.6
11/06:30pm 17.0 15.9 16.4 96 0.4 N 17 22 9 12 1017.9 1013.9 2.6
11/06:22pm 16.9 15.4 16.3 96 0.4 NNE 19 26 10 14 1017.6 1013.7 2.6
11/06:03pm 17.2 14.5 15.7 91 0.9 NE 24 32 13 17 1017.3 1013.4 1.8
11/06:00pm 17.5 14.8 15.5 88 1.2 ENE 24 32 13 17 1017.2 1013.3 1.2
11/05:30pm 19.1 15.3 14.6 75 2.7 ENE 28 37 15 20 1017.0 1013.0 0.0
11/05:00pm 20.5 16.8 15.1 71 3.3 NE 28 35 15 19 1016.7 1012.7 0.0
11/04:30pm 20.8 17.4 14.7 68 3.7 NNE 26 35 14 19 1016.3 1012.4 0.0
11/04:00pm 23.0 21.6 15.6 63 4.6 ENE 17 28 9 15 1015.9 1011.9 0.0
11/03:30pm 23.1 22.1 13.3 54 5.9 E 11 17 6 9 1016.4 1012.5 0.0
11/03:00pm 24.0 22.0 12.6 49 6.8 E 15 20 8 11 1016.4 1012.5 0.0
11/02:30pm 23.6 21.8 13.2 52 6.3 SE 15 22 8 12 1017.0 1013.0 0.0
11/02:00pm 23.4 22.5 13.6 54 5.9 E 11 20 6 11 1017.5 1013.6 0.0
11/01:30pm 23.5 23.5 15.3 60 5.1 NNE 9 15 5 8 1017.8 1013.8 0.0
11/01:00pm 22.9 22.3 14.7 60 5.0 E 11 19 6 10 1018.1 1014.2 0.0
11/12:30pm 21.9 20.3 14.0 61 4.8 ENE 15 20 8 11 1018.3 1014.4 0.0
11/12:00pm 21.9 21.7 14.8 64 4.4 ENE 9 22 5 12 1018.5 1014.6 0.0
11/11:30am 21.3 21.4 15.4 69 3.7 ESE 9 15 5 8 1018.6 1014.7 0.0
11/11:00am 20.3 21.2 15.1 72 3.2 NE 4 13 2 7 1018.6 1014.7 0.0
11/10:30am 19.3 20.2 13.9 71 3.2 W 2 7 1 4 1018.7 1014.8 0.0
11/10:00am 18.4 18.3 13.3 72 3.0 NNW 6 9 3 5 1018.8 1014.9 0.0
11/09:30am 17.9 17.4 13.8 77 2.4 NNE 9 13 5 7 1018.8 1014.9 0.0
11/09:10am 17.5 17.6 14.0 80 2.1 NE 6 11 3 6 1019.0 1015.0 0.0
11/09:00am 17.3 18.2 14.0 81 2.0 NNE 2 7 1 4 1019.0 1015.0 0.2
11/08:30am 16.7 18.2 14.7 88 1.2 CALM 0 0 0 0 1018.8 1014.9 0.2

Latest Capital City Observations: Canberra | Sydney | Melbourne | Brisbane | Adelaide | Perth | Hobart | Darwin

Other Formats:

Comma delimited format used in spreadsheet applications
http://www.bom.gov.au/fwo/IDN60903/IDN60903.94921.axf

JavaScript Object Notation format (JSON) in row-major order
http://www.bom.gov.au/fwo/IDN60903/IDN60903.94921.json